createdAt,value
2018-12-23T00:00:02.715Z,3
2018-12-23T00:05:12.031Z,3
2018-12-23T00:10:03.593Z,4
2018-12-23T00:15:03.050Z,2
2018-12-23T00:20:02.579Z,4
2018-12-23T00:25:03.047Z,4
2018-12-23T00:30:02.610Z,2
2018-12-23T00:35:03.032Z,7
2018-12-23T00:40:03.626Z,7
2018-12-23T00:45:03.056Z,3
2018-12-23T00:50:02.560Z,5
2018-12-23T00:55:03.049Z,4
2018-12-23T01:00:03.574Z,3
2018-12-23T01:05:03.507Z,2
2018-12-23T01:10:03.108Z,3
2018-12-23T01:15:02.553Z,3
2018-12-23T01:20:03.133Z,3
2018-12-23T01:25:02.717Z,0
2018-12-23T01:30:03.242Z,0
2018-12-23T01:35:02.854Z,0
2018-12-23T01:40:03.540Z,0
2018-12-23T01:45:02.967Z,2
2018-12-23T01:50:03.523Z,2
2018-12-23T01:55:03.007Z,3
2018-12-23T02:00:02.646Z,2
2018-12-23T02:05:03.264Z,2
2018-12-23T02:10:02.837Z,2
2018-12-23T02:15:03.373Z,3
2018-12-23T02:20:02.836Z,3
2018-12-23T02:25:03.273Z,3
2018-12-23T02:30:02.779Z,7
2018-12-23T02:35:03.347Z,3
2018-12-23T02:40:02.788Z,4
2018-12-23T02:45:03.280Z,7
2018-12-23T02:50:02.789Z,3
2018-12-23T02:55:03.502Z,2
2018-12-23T03:00:03.103Z,1
2018-12-23T03:05:02.758Z,3
2018-12-23T03:10:03.492Z,3
2018-12-23T03:15:03.106Z,3
2018-12-23T03:20:02.615Z,2
2018-12-23T03:25:03.314Z,4
2018-12-23T03:30:02.771Z,4
2018-12-23T03:35:03.296Z,3
2018-12-23T03:40:02.897Z,3
2018-12-23T03:45:03.528Z,1
2018-12-23T03:50:03.048Z,4
2018-12-23T03:55:02.599Z,3
2018-12-23T04:00:03.432Z,3
2018-12-23T04:05:02.863Z,5
2018-12-23T04:10:03.384Z,3
2018-12-23T04:15:02.868Z,2
2018-12-23T04:20:03.482Z,3
2018-12-23T04:25:02.942Z,3
2018-12-23T04:30:03.427Z,3
2018-12-23T04:35:02.973Z,1
2018-12-23T04:40:02.621Z,3
2018-12-23T04:45:03.116Z,3
2018-12-23T04:50:02.645Z,4
2018-12-23T04:55:03.076Z,2
2018-12-23T05:00:02.608Z,4
2018-12-23T05:05:03.189Z,3
2018-12-23T05:10:02.811Z,3
2018-12-23T05:15:03.302Z,2
2018-12-23T05:20:02.722Z,4
2018-12-23T05:25:03.279Z,5
2018-12-23T05:30:02.969Z,3
2018-12-23T05:35:03.526Z,8
2018-12-23T05:40:03.048Z,3
2018-12-23T05:45:03.506Z,3
2018-12-23T05:50:03.399Z,4
2018-12-23T05:55:02.882Z,2
2018-12-23T06:00:03.434Z,2
2018-12-23T06:05:03.008Z,3
2018-12-23T06:10:03.625Z,4
2018-12-23T06:15:03.042Z,4
2018-12-23T06:20:03.499Z,4
2018-12-23T06:25:02.976Z,2
2018-12-23T06:30:03.439Z,3
2018-12-23T06:35:02.992Z,4
2018-12-23T06:40:03.554Z,2
2018-12-23T06:45:02.994Z,2
2018-12-23T06:50:02.607Z,2
2018-12-23T06:55:03.159Z,2
2018-12-23T07:00:02.716Z,4
2018-12-23T07:05:03.216Z,4
2018-12-23T07:10:03.083Z,7
2018-12-23T07:15:02.639Z,2
2018-12-23T07:20:03.135Z,4
2018-12-23T07:25:02.587Z,4
2018-12-23T07:30:03.083Z,5
2018-12-23T07:35:02.595Z,4
2018-12-23T07:40:03.294Z,5
2018-12-23T07:45:02.811Z,4
2018-12-23T07:50:03.254Z,2
2018-12-23T07:55:02.719Z,2
2018-12-23T08:00:03.179Z,2
2018-12-23T08:05:02.811Z,2
2018-12-23T08:10:03.466Z,4
2018-12-23T08:15:03.069Z,3
2018-12-23T08:20:02.622Z,3
2018-12-23T08:25:03.047Z,5
2018-12-23T08:30:03.644Z,6
2018-12-23T08:35:03.111Z,2
2018-12-23T08:40:02.602Z,3
2018-12-23T08:45:03.076Z,3
2018-12-23T08:50:02.613Z,5
2018-12-23T08:55:03.102Z,7
2018-12-23T09:00:02.649Z,4
2018-12-23T09:05:03.146Z,3
2018-12-23T09:10:02.623Z,2
2018-12-23T09:15:03.166Z,4
2018-12-23T09:20:02.650Z,3
2018-12-23T09:25:03.219Z,3
2018-12-23T09:30:03.053Z,5
2018-12-23T09:35:02.571Z,6
2018-12-23T09:40:03.044Z,5
2018-12-23T09:45:03.504Z,2
2018-12-23T09:50:02.971Z,7
2018-12-23T09:55:03.481Z,4
2018-12-23T10:00:02.967Z,4
2018-12-23T10:05:03.434Z,3
2018-12-23T10:10:02.993Z,4
2018-12-23T10:15:03.505Z,4
2018-12-23T10:20:03.042Z,4
2018-12-23T10:25:02.651Z,3
2018-12-23T10:30:03.089Z,2
2018-12-23T10:35:02.596Z,2
2018-12-23T10:40:03.094Z,3
2018-12-23T10:45:02.619Z,3
2018-12-23T10:50:03.142Z,1
2018-12-23T10:55:02.616Z,3
2018-12-23T11:00:03.263Z,2
2018-12-23T11:05:02.904Z,0
2018-12-23T11:10:03.435Z,0
2018-12-23T11:15:02.910Z,1
2018-12-23T11:20:03.350Z,0
2018-12-23T11:25:02.764Z,2
2018-12-23T11:30:03.271Z,2
2018-12-23T11:35:02.793Z,0
2018-12-23T11:40:03.357Z,0
2018-12-23T11:45:02.876Z,0
2018-12-23T11:50:03.320Z,0
2018-12-23T11:55:02.851Z,0
2018-12-23T12:00:03.411Z,0
2018-12-23T12:05:02.854Z,0
2018-12-23T12:10:03.420Z,2
2018-12-23T12:15:02.936Z,2
2018-12-23T12:20:03.438Z,2
2018-12-23T12:25:02.934Z,0
2018-12-23T12:30:03.384Z,3
2018-12-23T12:35:02.888Z,7
2018-12-23T12:40:03.334Z,3
2018-12-23T12:45:02.936Z,2
2018-12-23T12:50:03.551Z,4
2018-12-23T12:55:03.130Z,3
2018-12-23T13:00:02.658Z,5
2018-12-23T13:05:03.257Z,3
2018-12-23T13:10:02.787Z,3
2018-12-23T13:15:03.314Z,1
2018-12-23T13:20:02.890Z,1
2018-12-23T13:25:03.392Z,2
2018-12-23T13:30:02.888Z,1
2018-12-23T13:35:03.502Z,2
2018-12-23T13:40:03.100Z,1
2018-12-23T13:45:02.595Z,0
2018-12-23T13:50:03.224Z,3
2018-12-23T13:55:02.654Z,1
2018-12-23T14:00:03.185Z,2
2018-12-23T14:05:02.702Z,0
2018-12-23T14:10:03.242Z,0
2018-12-23T14:15:02.756Z,2
2018-12-23T14:20:03.191Z,0
2018-12-23T14:25:02.691Z,0
2018-12-23T14:30:03.196Z,0
2018-12-23T14:35:02.745Z,0
2018-12-23T14:40:03.313Z,0
2018-12-23T14:45:02.828Z,0
2018-12-23T14:50:03.399Z,1
2018-12-23T14:55:02.816Z,0
2018-12-23T15:00:03.279Z,0
2018-12-23T15:05:02.806Z,0
2018-12-23T15:10:03.349Z,0
2018-12-23T15:15:02.830Z,0
2018-12-23T15:20:03.392Z,0
2018-12-23T15:25:02.897Z,0
2018-12-23T15:30:03.382Z,0
2018-12-23T15:35:02.843Z,0
2018-12-23T15:40:03.442Z,0
2018-12-23T15:45:02.963Z,0
2018-12-23T15:50:03.518Z,0
2018-12-23T15:55:03.007Z,0
2018-12-23T16:00:03.466Z,0
2018-12-23T16:05:02.988Z,0
2018-12-23T16:10:03.758Z,0
2018-12-23T16:15:03.314Z,0
2018-12-23T16:20:02.840Z,0
2018-12-23T16:25:03.365Z,0
2018-12-23T16:30:02.906Z,0
2018-12-23T16:35:03.503Z,0
2018-12-23T16:40:03.073Z,0
2018-12-23T16:45:02.581Z,0
2018-12-23T16:50:03.123Z,0
2018-12-23T16:55:02.597Z,0
2018-12-23T17:00:03.092Z,0
2018-12-23T17:05:03.490Z,0
2018-12-23T17:10:08.861Z,0
2018-12-23T17:15:03.293Z,0
2018-12-23T17:20:02.816Z,0
2018-12-23T17:25:03.418Z,0
2018-12-23T17:30:02.968Z,0
2018-12-23T17:35:03.495Z,0
2018-12-23T17:40:03.000Z,0
2018-12-23T17:45:03.543Z,0
2018-12-23T17:50:02.991Z,0
2018-12-23T17:55:03.491Z,0
2018-12-23T18:00:02.956Z,1
2018-12-23T18:05:03.547Z,0
2018-12-23T18:10:03.383Z,0
2018-12-23T18:15:03.017Z,0
2018-12-23T18:20:03.567Z,0
2018-12-23T18:25:03.062Z,0
2018-12-23T18:30:02.586Z,0
2018-12-23T18:35:03.179Z,0
2018-12-23T18:40:02.663Z,2
2018-12-23T18:45:03.163Z,3
2018-12-23T18:50:02.695Z,7
2018-12-23T18:55:03.326Z,3
2018-12-23T19:00:02.820Z,4
2018-12-23T19:05:03.266Z,5
2018-12-23T19:10:02.827Z,4
2018-12-23T19:15:03.333Z,2
2018-12-23T19:20:02.841Z,2
2018-12-23T19:25:03.335Z,1
2018-12-23T19:30:02.772Z,1
2018-12-23T19:35:03.338Z,2
2018-12-23T19:40:03.156Z,0
2018-12-23T19:45:02.648Z,0
2018-12-23T19:50:03.319Z,1
2018-12-23T19:55:02.843Z,2
2018-12-23T20:00:03.476Z,0
2018-12-23T20:05:03.052Z,2
2018-12-23T20:10:02.623Z,3
2018-12-23T20:15:03.179Z,3
2018-12-23T20:20:02.708Z,1
2018-12-23T20:25:03.290Z,4
2018-12-23T20:30:03.062Z,1
2018-12-23T20:35:02.661Z,1
2018-12-23T20:40:03.209Z,2
2018-12-23T20:45:02.651Z,1
2018-12-23T20:50:03.149Z,0
2018-12-23T20:55:02.651Z,2
2018-12-23T21:00:03.129Z,1
2018-12-23T21:05:02.674Z,0
2018-12-23T21:10:03.219Z,0
2018-12-23T21:15:02.754Z,0
2018-12-23T21:20:03.298Z,1
2018-12-23T21:25:11.631Z,1
2018-12-23T21:30:03.167Z,2
2018-12-23T21:35:02.662Z,0
2018-12-23T21:40:03.155Z,0
2018-12-23T21:45:02.624Z,2
2018-12-23T21:50:03.091Z,4
2018-12-23T21:55:02.581Z,3
2018-12-23T22:00:03.027Z,3
2018-12-23T22:05:02.752Z,2
2018-12-23T22:10:03.416Z,2
2018-12-23T22:15:02.997Z,2
2018-12-23T22:20:02.623Z,1
2018-12-23T22:25:03.031Z,2
2018-12-23T22:30:02.578Z,2
2018-12-23T22:35:03.111Z,3
2018-12-23T22:40:02.669Z,1
2018-12-23T22:45:03.178Z,2
2018-12-23T22:50:02.768Z,2
2018-12-23T22:55:03.246Z,0
2018-12-23T23:00:02.630Z,2
2018-12-23T23:05:03.130Z,2
2018-12-23T23:10:02.666Z,0
2018-12-23T23:15:03.185Z,3
2018-12-23T23:20:02.692Z,2
2018-12-23T23:25:03.383Z,0
2018-12-23T23:30:02.900Z,0
2018-12-23T23:35:03.476Z,2
2018-12-23T23:40:02.986Z,2
2018-12-23T23:45:03.443Z,0
2018-12-23T23:50:02.861Z,0
2018-12-23T23:55:03.351Z,2
